Time;durP1;ratioP1;P1;durP2;ratioP2;P2;SDS_P1;SDS_P2;PMS_P1;PMS_P2;Temp;Humidity;BMP_temperature;BMP_pressure;BME280_temperature;BME280_humidity;BME280_pressure;Samples;Min_cycle;Max_cycle;Signal;HPM_P1;HPM_P2
2021/03/02 00:02:50;;;;;;;61.93;28.60;;;;;1.90;102515.00;;;;10502736;28;20217;-76
2021/03/02 00:07:51;;;;;;;67.43;29.50;;;;;1.90;102517.00;;;;10484895;28;20204;-76
2021/03/02 00:12:54;;;;;;;62.40;29.13;;;;;1.80;102518.00;;;;10450187;28;20212;-76
2021/03/02 00:17:56;;;;;;;67.17;29.17;;;;;1.80;102519.00;;;;10442788;28;20699;-76
2021/03/02 00:23:02;;;;;;;68.60;27.83;;;;;1.70;102513.00;;;;10442566;28;20178;-76
2021/03/02 00:28:08;;;;;;;68.87;30.70;;;;;1.70;102517.00;;;;10425466;28;20273;-76
2021/03/02 00:33:12;;;;;;;65.43;29.40;;;;;1.60;102517.00;;;;10442418;28;20203;-76
2021/03/02 00:38:14;;;;;;;71.53;29.60;;;;;1.60;102517.00;;;;10425390;28;20208;-76
2021/03/02 00:43:15;;;;;;;73.30;30.13;;;;;1.50;102515.00;;;;10441419;28;20701;-76
2021/03/02 00:48:17;;;;;;;64.73;28.47;;;;;1.40;102523.00;;;;10424864;28;20210;-76
2021/03/02 00:53:18;;;;;;;58.60;27.10;;;;;1.30;102514.00;;;;10424653;28;20210;-76
2021/03/02 00:58:20;;;;;;;67.67;27.93;;;;;1.20;102512.00;;;;10408339;28;20267;-76
2021/03/02 01:03:24;;;;;;;65.77;27.70;;;;;1.20;102498.00;;;;10424252;28;20193;-76
2021/03/02 01:08:27;;;;;;;65.30;29.97;;;;;1.10;102502.00;;;;10448276;28;20295;-76
2021/03/02 01:13:31;;;;;;;73.20;30.33;;;;;1.10;102509.00;;;;10464830;28;20279;-76
2021/03/02 01:18:34;;;;;;;69.20;27.77;;;;;1.00;102507.00;;;;10500034;28;20189;-76
2021/03/02 01:23:35;;;;;;;76.40;29.37;;;;;1.00;102505.00;;;;10464567;28;20204;-76
2021/03/02 01:28:37;;;;;;;68.23;27.97;;;;;1.00;102502.00;;;;10481091;28;20666;-76
2021/03/02 01:33:38;;;;;;;67.70;28.23;;;;;0.90;102502.00;;;;10481432;28;20213;-76
2021/03/02 01:38:39;;;;;;;68.17;29.63;;;;;0.90;102492.00;;;;10447987;28;20202;-76
2021/03/02 01:43:41;;;;;;;74.73;30.00;;;;;0.90;102485.00;;;;10447999;28;20284;-76
2021/03/02 01:48:42;;;;;;;73.23;30.13;;;;;0.90;102484.00;;;;10480332;28;20614;-76
2021/03/02 01:53:44;;;;;;;74.30;28.33;;;;;0.80;102479.00;;;;10480047;28;20202;-76
2021/03/02 01:58:46;;;;;;;66.43;27.07;;;;;0.70;102483.00;;;;10446773;28;20221;-76
2021/03/02 02:03:58;;;;;;;72.30;29.17;;;;;0.70;102474.00;;;;10480263;28;20189;-76
2021/03/02 02:09:09;;;;;;;71.33;29.80;;;;;0.70;102478.00;;;;10463598;28;20644;-76
2021/03/02 02:14:18;;;;;;;69.20;29.50;;;;;0.60;102466.00;;;;10463558;28;20205;-76
2021/03/02 02:19:32;;;;;;;77.43;30.97;;;;;0.50;102467.00;;;;10480137;28;20300;-76
2021/03/02 02:24:45;;;;;;;77.53;30.57;;;;;0.50;102460.00;;;;10463002;28;20196;-76
2021/03/02 02:29:47;;;;;;;82.67;32.43;;;;;0.50;102457.00;;;;10446372;28;20200;-76
2021/03/02 02:34:50;;;;;;;85.83;32.00;;;;;0.40;102457.00;;;;10479669;28;20236;-77
2021/03/02 02:39:53;;;;;;;87.03;33.00;;;;;0.40;102448.00;;;;10479616;28;20204;-77
2021/03/02 02:44:56;;;;;;;83.07;31.57;;;;;0.30;102444.00;;;;10462279;28;20649;-77
2021/03/02 02:49:58;;;;;;;73.40;28.10;;;;;0.30;102453.00;;;;10478642;28;20247;-76
2021/03/02 02:55:02;;;;;;;78.03;29.20;;;;;0.20;102451.00;;;;10462526;28;20295;-76
2021/03/02 03:00:05;;;;;;;79.93;30.10;;;;;0.20;102447.00;;;;10478778;28;20284;-77
2021/03/02 03:05:10;;;;;;;73.33;30.90;;;;;0.20;102453.00;;;;10453709;28;20260;-77
2021/03/02 03:10:12;;;;;;;77.20;29.97;;;;;0.10;102444.00;;;;10432751;28;20223;-77
2021/03/02 03:15:17;;;;;;;79.57;29.47;;;;;0.10;102451.00;;;;10479040;28;20221;-77
2021/03/02 03:20:19;;;;;;;77.73;30.43;;;;;0.10;102443.00;;;;10461562;28;20589;-77
2021/03/02 03:25:21;;;;;;;78.30;30.40;;;;;0.00;102437.00;;;;10462144;28;20259;-76
2021/03/02 03:30:25;;;;;;;79.17;31.20;;;;;0.00;102441.00;;;;10461900;28;20190;-77
2021/03/02 03:35:26;;;;;;;70.97;29.00;;;;;0.00;102446.00;;;;10466462;28;20218;-77
2021/03/02 03:40:28;;;;;;;85.40;32.43;;;;;0.00;102448.00;;;;10468673;28;20205;-77
2021/03/02 03:45:30;;;;;;;78.83;28.63;;;;;0.00;102448.00;;;;10452080;28;20198;-77
2021/03/02 03:50:31;;;;;;;81.77;31.47;;;;;-0.10;102438.00;;;;10468544;28;20219;-77
2021/03/02 03:55:40;;;;;;;72.37;28.93;;;;;-0.10;102439.00;;;;10468339;28;20226;-76
2021/03/02 04:00:42;;;;;;;76.53;29.77;;;;;-0.20;102442.00;;;;10484689;28;20190;-76
2021/03/02 04:05:46;;;;;;;73.43;29.03;;;;;-0.20;102436.00;;;;10467999;28;20197;-77
2021/03/02 04:10:47;;;;;;;71.37;30.30;;;;;-0.30;102439.00;;;;10468105;28;20218;-77
2021/03/02 04:15:49;;;;;;;68.43;30.10;;;;;-0.30;102442.00;;;;10426280;28;20742;-76
2021/03/02 04:20:51;;;;;;;79.23;31.00;;;;;-0.30;102445.00;;;;10442340;28;20206;-77
2021/03/02 04:25:52;;;;;;;80.80;29.33;;;;;-0.40;102443.00;;;;10409690;28;20232;-76
2021/03/02 04:30:53;;;;;;;75.87;30.30;;;;;-0.40;102437.00;;;;10425693;28;20633;-76
2021/03/02 04:35:55;;;;;;;86.73;32.00;;;;;-0.40;102443.00;;;;10442765;28;20206;-77
2021/03/02 04:40:56;;;;;;;79.00;28.00;;;;;-0.40;102433.00;;;;10476453;28;20205;-77
2021/03/02 04:45:57;;;;;;;75.37;29.10;;;;;-0.50;102438.00;;;;10466080;28;20247;-77
2021/03/02 04:50:59;;;;;;;81.17;29.23;;;;;-0.50;102439.00;;;;10466233;28;20221;-77
2021/03/02 04:56:02;;;;;;;75.93;29.87;;;;;-0.50;102436.00;;;;10450034;28;20221;-77
2021/03/02 05:01:03;;;;;;;79.17;31.50;;;;;-0.50;102429.00;;;;10466779;28;20221;-77
2021/03/02 05:06:05;;;;;;;71.20;29.47;;;;;-0.60;102426.00;;;;10501026;28;20241;-77
2021/03/02 05:11:06;;;;;;;82.90;27.97;;;;;-0.60;102431.00;;;;10448959;28;20189;-77
2021/03/02 05:16:09;;;;;;;83.60;31.20;;;;;-0.60;102427.00;;;;10465766;28;20213;-77
2021/03/02 05:21:11;;;;;;;78.50;30.93;;;;;-0.60;102430.00;;;;10448743;28;20203;-77
2021/03/02 05:26:12;;;;;;;81.13;30.50;;;;;-0.60;102422.00;;;;10481396;28;20216;-77
2021/03/02 05:31:14;;;;;;;78.30;29.97;;;;;-0.60;102425.00;;;;10448476;28;20188;-77
2021/03/02 05:36:15;;;;;;;87.10;32.37;;;;;-0.60;102426.00;;;;10423668;28;20301;-77
2021/03/02 05:41:17;;;;;;;96.87;32.57;;;;;-0.70;102418.00;;;;10452812;28;20221;-77
2021/03/02 05:46:22;;;;;;;77.40;29.87;;;;;-0.70;102421.00;;;;10464493;28;20247;-77
2021/03/02 05:51:24;;;;;;;79.27;32.33;;;;;-0.70;102427.00;;;;10480239;28;20190;-76
2021/03/02 05:56:25;;;;;;;72.33;31.37;;;;;-0.70;102424.00;;;;10447079;28;20654;-76
2021/03/02 06:01:27;;;;;;;73.90;31.37;;;;;-0.80;102425.00;;;;10463604;28;20201;-76
2021/03/02 06:06:28;;;;;;;81.37;30.07;;;;;-0.80;102426.00;;;;10463371;28;20236;-76
2021/03/02 06:11:32;;;;;;;81.27;29.00;;;;;-0.80;102419.00;;;;10447335;28;20251;-76
2021/03/02 06:17:03;;;;;;;86.67;32.73;;;;;-0.80;102419.00;;;;10447304;28;20251;-76
2021/03/02 06:22:05;;;;;;;88.33;32.33;;;;;-0.80;102413.00;;;;10450685;28;20561;-76
2021/03/02 06:27:12;;;;;;;80.13;31.20;;;;;-0.80;102427.00;;;;10480237;28;20190;-76
2021/03/02 06:32:13;;;;;;;96.07;33.33;;;;;-0.70;102432.00;;;;10479074;28;20218;-76
2021/03/02 06:37:14;;;;;;;77.20;32.13;;;;;-0.70;102441.00;;;;10479422;28;20201;-76
2021/03/02 06:42:18;;;;;;;91.23;34.20;;;;;-0.60;102436.00;;;;10462909;28;20248;-76
2021/03/02 06:47:39;;;;;;;91.20;31.77;;;;;-0.50;102440.00;;;;10446033;28;20198;-76
2021/03/02 06:52:43;;;;;;;95.63;33.90;;;;;-0.40;102446.00;;;;10445712;28;20567;-76
2021/03/02 06:57:49;;;;;;;94.73;34.37;;;;;-0.30;102446.00;;;;10461854;28;20255;-76
2021/03/02 07:02:50;;;;;;;95.67;33.40;;;;;-0.10;102448.00;;;;10478637;28;20190;-76
2021/03/02 07:07:55;;;;;;;87.50;32.73;;;;;0.00;102445.00;;;;10479814;28;20682;-76
2021/03/02 07:12:56;;;;;;;98.03;37.33;;;;;0.30;102446.00;;;;10437181;28;20209;-76
2021/03/02 07:17:58;;;;;;;101.57;39.33;;;;;0.60;102442.00;;;;10454474;28;20193;-76
2021/03/02 07:23:02;;;;;;;97.10;38.53;;;;;0.90;102447.00;;;;10486381;28;20205;-76
2021/03/02 07:28:11;;;;;;;111.60;42.30;;;;;1.20;102453.00;;;;10487573;28;20192;-76
2021/03/02 07:33:13;;;;;;;104.93;41.83;;;;;1.60;102457.00;;;;10453193;28;20560;-76
2021/03/02 07:38:17;;;;;;;94.80;39.60;;;;;1.90;102458.00;;;;10469258;28;20233;-76
2021/03/02 07:43:26;;;;;;;95.43;39.07;;;;;2.30;102464.00;;;;10468575;28;20197;-76
2021/03/02 07:48:36;;;;;;;87.47;36.60;;;;;2.60;102462.00;;;;10485632;28;20243;-76
2021/03/02 07:53:38;;;;;;;78.70;34.27;;;;;3.00;102464.00;;;;10471224;28;20209;-76
2021/03/02 07:59:04;;;;;;;75.07;33.97;;;;;3.40;102471.00;;;;10460412;28;20260;-76
2021/03/02 08:04:15;;;;;;;78.67;35.97;;;;;3.80;102469.00;;;;10467496;28;20236;-76
2021/03/02 08:09:25;;;;;;;83.13;38.37;;;;;4.20;102481.00;;;;10433686;28;20554;-76
2021/03/02 08:14:28;;;;;;;77.57;36.90;;;;;4.50;102479.00;;;;10428341;28;20222;-76
2021/03/02 08:19:38;;;;;;;64.27;33.97;;;;;5.00;102485.00;;;;10460414;28;20719;-76
2021/03/02 08:24:58;;;;;;;58.37;30.10;;;;;5.50;102490.00;;;;10463049;28;20273;-76
2021/03/02 08:30:02;;;;;;;55.63;29.23;;;;;6.10;102494.00;;;;10467123;28;20201;-76
2021/03/02 08:35:09;;;;;;;54.07;27.40;;;;;6.80;102499.00;;;;10483694;28;20255;-76
2021/03/02 08:40:13;;;;;;;32.47;18.83;;;;;7.50;102498.00;;;;10483374;28;20687;-76
2021/03/02 08:45:15;;;;;;;31.00;19.47;;;;;8.00;102499.00;;;;10483480;28;20280;-76
2021/03/02 08:50:33;;;;;;;29.10;18.50;;;;;8.60;102500.00;;;;10449743;28;20197;-77
2021/03/02 08:55:38;;;;;;;32.63;19.33;;;;;9.00;102509.00;;;;10461212;28;20580;-76
2021/03/02 09:00:40;;;;;;;28.90;17.20;;;;;9.50;102512.00;;;;10425233;28;20542;-76
2021/03/02 09:05:42;;;;;;;22.37;15.03;;;;;9.90;102496.00;;;;10407622;28;20221;-76
2021/03/02 09:11:02;;;;;;;25.87;16.07;;;;;10.20;102498.00;;;;10440545;28;20190;-76
2021/03/02 09:16:28;;;;;;;24.17;15.77;;;;;10.50;102497.00;;;;10441282;28;20206;-75
2021/03/02 09:21:54;;;;;;;22.67;15.23;;;;;11.00;102498.00;;;;10456632;28;20197;-76
2021/03/02 09:27:20;;;;;;;23.37;13.87;;;;;11.60;102496.00;;;;10446501;28;20201;-76
2021/03/02 09:32:30;;;;;;;20.30;13.17;;;;;11.90;102493.00;;;;10459296;28;20668;-74
2021/03/02 09:37:36;;;;;;;18.33;11.97;;;;;12.30;102490.00;;;;10446335;28;20190;-74
2021/03/02 09:42:39;;;;;;;17.90;12.73;;;;;12.60;102494.00;;;;10448267;28;20198;-75
2021/03/02 09:47:42;;;;;;;18.63;12.73;;;;;13.00;102478.00;;;;10447568;28;20319;-75
2021/03/02 09:52:48;;;;;;;16.90;12.80;;;;;13.20;102481.00;;;;10442750;28;20566;-75
2021/03/02 09:57:56;;;;;;;18.60;13.37;;;;;13.60;102490.00;;;;10486475;28;20239;-74
2021/03/02 10:03:04;;;;;;;18.67;12.30;;;;;13.90;102474.00;;;;10422594;28;20225;-74
2021/03/02 10:08:22;;;;;;;19.87;13.03;;;;;14.20;102474.00;;;;10468400;28;20189;-74
2021/03/02 10:13:26;;;;;;;19.57;12.43;;;;;14.40;102469.00;;;;10479993;28;20294;-74
2021/03/02 10:18:51;;;;;;;19.77;14.17;;;;;14.40;102478.00;;;;10459279;28;20208;-74
2021/03/02 10:23:55;;;;;;;17.23;13.50;;;;;14.50;102464.00;;;;10466321;28;20190;-74
2021/03/02 10:28:57;;;;;;;19.33;14.30;;;;;14.70;102468.00;;;;10474504;28;20218;-74
2021/03/02 10:34:06;;;;;;;19.30;14.10;;;;;15.00;102464.00;;;;10461210;28;20232;-75
2021/03/02 10:39:10;;;;;;;24.80;13.87;;;;;15.10;102458.00;;;;10459099;28;20209;-75
2021/03/02 10:44:13;;;;;;;21.27;14.07;;;;;15.30;102454.00;;;;10453255;28;20698;-75
2021/03/02 10:49:14;;;;;;;20.30;14.13;;;;;15.40;102450.00;;;;10464853;28;20202;-75
2021/03/02 10:54:16;;;;;;;20.27;13.10;;;;;15.70;102447.00;;;;10448359;28;20600;-75
2021/03/02 10:59:17;;;;;;;19.10;13.63;;;;;15.80;102446.00;;;;10421508;28;20205;-75
2021/03/02 11:04:19;;;;;;;19.98;13.82;;;;;16.00;102440.00;;;;10420786;28;20273;-75
2021/03/02 11:09:20;;;;;;;19.20;12.80;;;;;16.20;102442.00;;;;10457001;28;20305;-74
2021/03/02 11:14:21;;;;;;;19.33;12.97;;;;;16.50;102447.00;;;;10420608;28;20260;-74
2021/03/02 11:19:23;;;;;;;18.40;13.43;;;;;16.90;102439.00;;;;10457457;28;20197;-74
2021/03/02 11:24:25;;;;;;;24.42;14.00;;;;;17.20;102440.00;;;;10441518;28;20194;-74
2021/03/02 11:29:26;;;;;;;17.35;13.20;;;;;17.20;102440.00;;;;10420916;28;20244;-74
2021/03/02 11:34:27;;;;;;;18.30;13.32;;;;;17.40;102429.00;;;;10449429;28;20292;-74
2021/03/02 11:39:29;;;;;;;20.77;13.55;;;;;17.60;102429.00;;;;10460764;28;20201;-74
2021/03/02 11:44:31;;;;;;;20.27;13.45;;;;;17.70;102420.00;;;;10477877;28;20649;-74
2021/03/02 11:49:32;;;;;;;18.70;13.48;;;;;17.80;102419.00;;;;10477579;28;20226;-74
2021/03/02 11:54:33;;;;;;;21.58;14.38;;;;;17.90;102420.00;;;;10467671;28;20309;-74
2021/03/02 11:59:36;;;;;;;20.92;13.65;;;;;18.10;102405.00;;;;10460990;28;20190;-74
2021/03/02 12:04:37;;;;;;;21.95;14.05;;;;;18.00;102411.00;;;;10443840;28;20194;-74
2021/03/02 12:09:38;;;;;;;22.77;14.90;;;;;18.20;102397.00;;;;10469649;28;20200;-74
2021/03/02 12:14:40;;;;;;;21.58;14.52;;;;;18.20;102402.00;;;;10484460;28;20209;-74
2021/03/02 12:19:41;;;;;;;21.25;15.00;;;;;18.30;102391.00;;;;10501668;28;20205;-74
2021/03/02 12:24:42;;;;;;;26.02;16.38;;;;;18.40;102381.00;;;;10471619;28;20237;-74
2021/03/02 12:29:44;;;;;;;25.17;17.30;;;;;18.60;102372.00;;;;10447535;28;20198;-74
2021/03/02 12:34:46;;;;;;;26.08;16.95;;;;;18.60;102377.00;;;;10470411;28;20267;-74
2021/03/02 12:39:50;;;;;;;24.30;16.85;;;;;18.70;102365.00;;;;10479083;28;20193;-74
2021/03/02 12:44:51;;;;;;;21.52;16.33;;;;;18.80;102358.00;;;;10501356;28;20223;-74
2021/03/02 12:49:52;;;;;;;21.63;15.82;;;;;18.90;102358.00;;;;10482868;28;20548;-75
2021/03/02 12:54:54;;;;;;;22.13;16.00;;;;;19.00;102350.00;;;;10449619;28;20244;-74
2021/03/02 12:59:55;;;;;;;20.17;15.15;;;;;19.10;102341.00;;;;10483067;28;20758;-75
2021/03/02 13:04:58;;;;;;;20.77;15.30;;;;;19.20;102339.00;;;;10480392;28;20192;-73
2021/03/02 13:09:59;;;;;;;21.27;15.20;;;;;19.20;102336.00;;;;10472958;28;20228;-74
2021/03/02 13:15:04;;;;;;;20.92;13.98;;;;;19.50;102330.00;;;;10408102;28;20206;-74
2021/03/02 13:20:06;;;;;;;19.45;12.85;;;;;19.80;102324.00;;;;10487665;28;20653;-74
2021/03/02 13:25:08;;;;;;;20.77;13.35;;;;;20.10;102322.00;;;;10441823;28;20197;-74
2021/03/02 13:30:14;;;;;;;19.40;12.95;;;;;20.30;102320.00;;;;10439886;28;20197;-74
2021/03/02 13:35:15;;;;;;;21.30;13.48;;;;;20.30;102322.00;;;;10463957;28;20743;-74
2021/03/02 13:40:19;;;;;;;19.58;12.90;;;;;20.00;102322.00;;;;10464508;28;20605;-74
2021/03/02 13:45:23;;;;;;;21.65;13.13;;;;;20.00;102316.00;;;;10442852;28;20252;-75
2021/03/02 13:50:26;;;;;;;20.98;13.02;;;;;20.20;102313.00;;;;10439603;28;20198;-77
2021/03/02 13:55:28;;;;;;;20.17;12.43;;;;;20.30;102309.00;;;;10439350;28;20214;-75
2021/03/02 14:00:29;;;;;;;22.73;12.43;;;;;20.40;102306.00;;;;10456339;28;20241;-75
2021/03/02 14:05:32;;;;;;;26.05;13.60;;;;;20.20;102299.00;;;;10495062;28;20189;-77
2021/03/02 14:10:35;;;;;;;25.10;14.30;;;;;20.50;102299.00;;;;10479886;28;20178;-77
2021/03/02 14:15:37;;;;;;;20.63;12.27;;;;;21.00;102300.00;;;;10454549;28;20218;-76
2021/03/02 14:20:38;;;;;;;17.60;11.25;;;;;21.30;102297.00;;;;10422092;28;20732;-76
2021/03/02 14:25:40;;;;;;;21.65;12.32;;;;;21.20;102295.00;;;;10438975;28;20268;-77
2021/03/02 14:30:45;;;;;;;20.85;11.90;;;;;20.90;102285.00;;;;10465853;28;20588;-76
2021/03/02 14:35:47;;;;;;;23.42;12.02;;;;;21.70;102285.00;;;;10479256;28;20210;-76
2021/03/02 14:40:49;;;;;;;23.52;12.63;;;;;21.80;102271.00;;;;10446087;28;20305;-76
2021/03/02 14:45:51;;;;;;;21.95;11.57;;;;;22.30;102280.00;;;;10462360;28;21026;-76
2021/03/02 14:50:56;;;;;;;22.15;13.38;;;;;23.00;102260.00;;;;10462962;28;20552;-76
2021/03/02 14:56:04;;;;;;;22.33;11.60;;;;;24.60;102258.00;;;;10481859;28;20300;-77
2021/03/02 15:01:07;;;;;;;19.27;12.05;;;;;25.20;102248.00;;;;10482560;28;20198;-77
2021/03/02 15:06:10;;;;;;;22.20;11.95;;;;;25.30;102251.00;;;;10465489;28;20202;-77
2021/03/02 15:11:14;;;;;;;22.63;11.70;;;;;24.50;102248.00;;;;10481430;28;20205;-77
2021/03/02 15:16:16;;;;;;;20.42;12.30;;;;;24.50;102230.00;;;;10481217;28;20692;-77
2021/03/02 15:21:18;;;;;;;22.08;12.20;;;;;23.90;102274.00;;;;10464706;28;20192;-76
2021/03/02 15:26:20;;;;;;;22.65;11.48;;;;;22.40;102251.00;;;;10478785;28;20200;-76
2021/03/02 15:31:22;;;;;;;24.25;11.93;;;;;23.30;102221.00;;;;10483573;28;20593;-76
2021/03/02 15:36:25;;;;;;;27.33;12.00;;;;;22.80;102256.00;;;;10437208;28;20354;-75
2021/03/02 15:41:27;;;;;;;21.38;12.18;;;;;20.70;102275.00;;;;10484440;28;20196;-76
2021/03/02 15:46:28;;;;;;;23.73;11.25;;;;;19.70;102274.00;;;;10503869;28;20200;-76
2021/03/02 15:51:34;;;;;;;24.95;13.10;;;;;19.20;102272.00;;;;10485717;28;20189;-77
2021/03/02 15:56:36;;;;;;;24.00;12.95;;;;;19.20;102259.00;;;;10485390;28;20231;-77
2021/03/02 16:01:40;;;;;;;22.67;11.95;;;;;18.80;102268.00;;;;10468760;28;20713;-76
2021/03/02 16:06:54;;;;;;;23.80;11.57;;;;;18.10;102267.00;;;;10433415;28;20601;-76
2021/03/02 16:11:56;;;;;;;22.77;12.55;;;;;17.60;102265.00;;;;10443652;28;20244;-76
2021/03/02 16:17:02;;;;;;;23.15;12.10;;;;;17.20;102257.00;;;;10441142;28;20225;-76
2021/03/02 16:22:11;;;;;;;21.35;12.18;;;;;16.90;102265.00;;;;10467943;28;20198;-76
2021/03/02 16:27:17;;;;;;;28.55;12.95;;;;;16.60;102268.00;;;;10467168;28;20255;-76
2021/03/02 16:32:18;;;;;;;24.15;12.32;;;;;16.30;102267.00;;;;10451143;28;20200;-76
2021/03/02 16:37:20;;;;;;;20.70;11.45;;;;;16.10;102265.00;;;;10450861;28;20297;-76
2021/03/02 16:42:22;;;;;;;23.30;12.20;;;;;15.80;102266.00;;;;10501726;28;20563;-75
2021/03/02 16:47:24;;;;;;;20.93;11.90;;;;;15.70;102263.00;;;;10482930;28;20227;-75
2021/03/02 16:52:30;;;;;;;21.53;12.40;;;;;15.40;102266.00;;;;10464027;28;20194;-75
2021/03/02 16:57:55;;;;;;;23.50;12.47;;;;;15.10;102268.00;;;;10490560;28;20251;-75
2021/03/02 17:03:09;;;;;;;22.07;11.77;;;;;14.90;102266.00;;;;10466220;28;20182;-75
2021/03/02 17:08:16;;;;;;;20.27;11.47;;;;;14.50;102266.00;;;;10482741;28;20243;-75
2021/03/02 17:13:18;;;;;;;25.67;13.13;;;;;14.20;102272.00;;;;10482395;28;20209;-75
2021/03/02 17:18:19;;;;;;;21.90;12.97;;;;;13.80;102271.00;;;;10421075;28;20225;-75
2021/03/02 17:23:20;;;;;;;25.53;13.13;;;;;13.40;102275.00;;;;10482102;28;20307;-75
2021/03/02 17:28:22;;;;;;;26.40;13.57;;;;;13.00;102279.00;;;;10459591;28;22460;-75
2021/03/02 17:33:27;;;;;;;29.17;12.57;;;;;12.70;102282.00;;;;10478386;28;20684;-75
2021/03/02 17:38:29;;;;;;;23.43;12.97;;;;;12.40;102291.00;;;;10448585;28;20186;-75
2021/03/02 17:43:30;;;;;;;28.97;14.27;;;;;12.20;102297.00;;;;10461207;28;20193;-75
2021/03/02 17:48:32;;;;;;;45.10;37.90;;;;;11.90;102291.00;;;;10447762;28;20292;-74
2021/03/02 17:53:34;;;;;;;26.00;15.00;;;;;12.10;102300.00;;;;10480626;28;20209;-74
2021/03/02 17:58:35;;;;;;;26.43;13.67;;;;;12.20;102300.00;;;;10418571;28;20754;-75
2021/03/02 18:03:36;;;;;;;31.60;15.10;;;;;12.20;102300.00;;;;10447126;28;20199;-74
2021/03/02 18:08:39;;;;;;;26.37;14.17;;;;;11.90;102306.00;;;;10446817;28;20208;-74
2021/03/02 18:13:43;;;;;;;27.30;13.83;;;;;11.70;102301.00;;;;10495552;28;20209;-74
2021/03/02 18:18:44;;;;;;;26.20;15.63;;;;;11.50;102321.00;;;;10462776;28;20906;-74
2021/03/02 18:23:46;;;;;;;33.97;20.40;;;;;11.40;102325.00;;;;10421596;28;20271;-74
2021/03/02 18:28:47;;;;;;;40.87;27.23;;;;;11.20;102327.00;;;;10440963;28;20648;-75
2021/03/02 18:33:48;;;;;;;38.53;23.27;;;;;10.90;102320.00;;;;10445408;28;20220;-74
2021/03/02 18:38:49;;;;;;;39.33;20.93;;;;;10.60;102329.00;;;;10474597;28;20224;-75
2021/03/02 18:43:51;;;;;;;43.07;26.50;;;;;10.40;102324.00;;;;10445631;28;20197;-75
2021/03/02 18:48:52;;;;;;;33.33;19.77;;;;;10.20;102335.00;;;;10461944;28;20607;-75
2021/03/02 18:53:54;;;;;;;30.97;16.23;;;;;10.00;102335.00;;;;10448609;28;20260;-74
2021/03/02 18:58:55;;;;;;;29.67;15.60;;;;;10.00;102337.00;;;;10453106;28;20206;-74
2021/03/02 19:03:57;;;;;;;24.77;14.30;;;;;9.90;102340.00;;;;10458358;28;20185;-74
2021/03/02 19:08:59;;;;;;;27.63;15.37;;;;;9.80;102331.00;;;;10486493;28;20189;-74
2021/03/02 19:14:02;;;;;;;25.67;16.10;;;;;9.70;102335.00;;;;10486860;28;20707;-74
2021/03/02 19:19:05;;;;;;;30.43;17.80;;;;;9.60;102331.00;;;;10470317;28;20185;-75
2021/03/02 19:24:06;;;;;;;31.53;16.10;;;;;9.50;102337.00;;;;10458874;28;20243;-74
2021/03/02 19:29:10;;;;;;;27.00;16.27;;;;;9.30;102343.00;;;;10436699;28;20193;-74
2021/03/02 19:34:11;;;;;;;34.00;16.37;;;;;9.10;102338.00;;;;10481884;28;20206;-74
2021/03/02 19:39:13;;;;;;;34.03;16.57;;;;;9.00;102339.00;;;;10470197;28;20209;-75
2021/03/02 19:44:17;;;;;;;27.90;16.90;;;;;8.90;102339.00;;;;10453006;28;20201;-75
2021/03/02 19:49:19;;;;;;;33.47;17.40;;;;;8.90;102350.00;;;;10451650;28;20255;-74
2021/03/02 19:54:22;;;;;;;35.40;17.13;;;;;8.80;102352.00;;;;10481361;28;20742;-74
2021/03/02 19:59:31;;;;;;;30.83;15.90;;;;;8.90;102342.00;;;;10428817;28;20866;-74
2021/03/02 20:04:33;;;;;;;29.07;16.67;;;;;8.80;102343.00;;;;10423943;28;20216;-74
2021/03/02 20:09:35;;;;;;;30.93;15.13;;;;;8.80;102349.00;;;;10440412;28;20217;-75
2021/03/02 20:14:44;;;;;;;33.47;16.60;;;;;8.80;102362.00;;;;10451600;28;20206;-75
2021/03/02 20:19:48;;;;;;;37.10;17.00;;;;;8.70;102346.00;;;;10450252;28;20200;-75
2021/03/02 20:25:06;;;;;;;33.07;16.70;;;;;8.60;102346.00;;;;10471176;28;20660;-75
2021/03/02 20:30:09;;;;;;;29.37;16.83;;;;;8.50;102345.00;;;;10463555;28;20232;-75
2021/03/02 20:35:10;;;;;;;35.17;16.93;;;;;8.50;102338.00;;;;10460408;28;20602;-75
2021/03/02 20:40:12;;;;;;;33.43;18.37;;;;;8.50;102346.00;;;;10452454;28;20224;-75
2021/03/02 20:45:14;;;;;;;33.83;19.13;;;;;8.60;102353.00;;;;10434934;28;20557;-75
2021/03/02 20:50:16;;;;;;;31.67;18.77;;;;;8.50;102347.00;;;;10467931;28;20248;-75
2021/03/02 20:55:17;;;;;;;33.87;18.53;;;;;8.50;102345.00;;;;10454108;28;20765;-75
2021/03/02 21:00:19;;;;;;;31.40;18.03;;;;;8.30;102349.00;;;;10462072;28;20198;-75
2021/03/02 21:05:21;;;;;;;35.43;19.97;;;;;8.10;102348.00;;;;10459971;28;20182;-75
2021/03/02 21:10:26;;;;;;;31.80;19.07;;;;;7.90;102355.00;;;;10462689;28;20204;-76
2021/03/02 21:15:28;;;;;;;32.70;18.73;;;;;7.70;102350.00;;;;10415220;28;20236;-75
2021/03/02 21:20:31;;;;;;;39.20;19.10;;;;;7.50;102362.00;;;;10407014;28;20201;-75
2021/03/02 21:25:32;;;;;;;38.37;18.30;;;;;7.30;102354.00;;;;10409267;28;20226;-75
2021/03/02 21:30:35;;;;;;;31.77;18.97;;;;;7.20;102362.00;;;;10455231;28;20193;-75
2021/03/02 21:35:50;;;;;;;33.17;18.87;;;;;7.10;102357.00;;;;10460861;28;20210;-75
2021/03/02 21:40:51;;;;;;;35.27;18.73;;;;;7.00;102369.00;;;;10436841;28;20215;-75
2021/03/02 21:45:53;;;;;;;37.30;19.10;;;;;7.00;102373.00;;;;10476128;28;20198;-75
2021/03/02 21:50:55;;;;;;;39.67;20.10;;;;;7.00;102368.00;;;;10463083;28;20197;-75
2021/03/02 21:55:56;;;;;;;36.33;19.63;;;;;7.00;102370.00;;;;10453892;28;20260;-75
2021/03/02 22:01:05;;;;;;;35.80;20.70;;;;;7.00;102369.00;;;;10435412;28;20303;-75
2021/03/02 22:06:06;;;;;;;37.90;20.27;;;;;6.90;102366.00;;;;10465202;28;20217;-75
2021/03/02 22:11:08;;;;;;;37.60;18.80;;;;;6.80;102374.00;;;;10451803;28;20204;-75
2021/03/02 22:16:09;;;;;;;39.00;19.33;;;;;6.70;102376.00;;;;10446486;28;20212;-75
2021/03/02 22:21:11;;;;;;;35.70;19.43;;;;;6.60;102371.00;;;;10434660;28;20228;-75
2021/03/02 22:26:12;;;;;;;42.77;20.57;;;;;6.70;102370.00;;;;10421136;28;20228;-75
2021/03/02 22:31:22;;;;;;;42.93;22.10;;;;;6.70;102368.00;;;;10449791;28;20680;-75
2021/03/02 22:36:24;;;;;;;39.40;19.80;;;;;6.70;102368.00;;;;10462984;28;20204;-75
2021/03/02 22:41:25;;;;;;;36.07;20.33;;;;;6.60;102365.00;;;;10479149;28;20655;-75
2021/03/02 22:46:27;;;;;;;37.50;21.53;;;;;6.50;102372.00;;;;10462188;28;20205;-75
2021/03/02 22:51:29;;;;;;;41.90;21.60;;;;;6.50;102364.00;;;;10479071;28;20641;-75
2021/03/02 22:56:30;;;;;;;37.93;21.97;;;;;6.40;102365.00;;;;10462399;28;20237;-74
2021/03/02 23:01:41;;;;;;;29.60;20.67;;;;;6.40;102359.00;;;;10447494;28;20200;-77
2021/03/02 23:06:44;;;;;;;38.57;22.30;;;;;6.50;102364.00;;;;10423849;28;20190;-75
2021/03/02 23:11:46;;;;;;;40.00;21.10;;;;;6.40;102367.00;;;;10421039;28;20857;-76
2021/03/02 23:16:48;;;;;;;37.40;21.83;;;;;6.40;102375.00;;;;10421285;28;20271;-75
2021/03/02 23:21:50;;;;;;;36.30;21.73;;;;;6.30;102372.00;;;;10421165;28;20197;-76
2021/03/02 23:26:51;;;;;;;39.40;22.37;;;;;6.20;102372.00;;;;10404588;28;20244;-75
2021/03/02 23:32:05;;;;;;;48.53;24.73;;;;;6.20;102377.00;;;;10463112;28;20285;-76
2021/03/02 23:37:07;;;;;;;44.67;23.10;;;;;6.20;102369.00;;;;10458677;28;20285;-76
2021/03/02 23:42:08;;;;;;;36.73;23.20;;;;;6.30;102370.00;;;;10446825;28;20202;-74
2021/03/02 23:47:10;;;;;;;42.70;24.03;;;;;6.20;102370.00;;;;10408839;28;20258;-74
2021/03/02 23:52:11;;;;;;;45.23;24.00;;;;;6.20;102373.00;;;;10435882;28;20200;-75
2021/03/02 23:57:13;;;;;;;42.13;24.67;;;;;6.20;102372.00;;;;10427346;28;20233;-75
